sensor_id;sensor_type;location;lat;lon;timestamp;P1;durP1;ratioP1;P2;durP2;ratioP2
62457;SDS011;48509;52.122;5.250;2023-05-01T00:00:36;6.7;;;3.5;;
62457;SDS011;48509;52.122;5.250;2023-05-01T00:02:13;4.8;;;3.3;;
62457;SDS011;48509;52.122;5.250;2023-05-01T00:03:49;6.7;;;3.5;;
62457;SDS011;48509;52.122;5.250;2023-05-01T00:05:26;7.8;;;3.3;;
62457;SDS011;48509;52.122;5.250;2023-05-01T00:08:39;7.3;;;3.5;;
62457;SDS011;48509;52.122;5.250;2023-05-01T00:10:15;6.0;;;3.4;;
62457;SDS011;48509;52.122;5.250;2023-05-01T00:11:51;6.0;;;3.6;;
62457;SDS011;48509;52.122;5.250;2023-05-01T00:15:05;8.2;;;3.8;;
62457;SDS011;48509;52.122;5.250;2023-05-01T00:16:43;5.4;;;3.6;;
62457;SDS011;48509;52.122;5.250;2023-05-01T00:18:20;6.7;;;3.7;;
62457;SDS011;48509;52.122;5.250;2023-05-01T00:19:57;6.3;;;3.7;;
62457;SDS011;48509;52.122;5.250;2023-05-01T00:23:09;4.8;;;3.5;;
62457;SDS011;48509;52.122;5.250;2023-05-01T00:24:46;7.1;;;3.9;;
62457;SDS011;48509;52.122;5.250;2023-05-01T00:26:22;6.7;;;3.9;;
62457;SDS011;48509;52.122;5.250;2023-05-01T00:29:35;7.1;;;4.0;;
62457;SDS011;48509;52.122;5.250;2023-05-01T00:31:12;7.5;;;4.0;;
62457;SDS011;48509;52.122;5.250;2023-05-01T00:32:49;6.4;;;4.1;;
62457;SDS011;48509;52.122;5.250;2023-05-01T00:36:01;6.5;;;3.6;;
62457;SDS011;48509;52.122;5.250;2023-05-01T00:37:38;6.5;;;3.6;;
62457;SDS011;48509;52.122;5.250;2023-05-01T00:39:15;4.41;;;3.3;;
62457;SDS011;48509;52.122;5.250;2023-05-01T00:42:32;6.8;;;3.5;;
62457;SDS011;48509;52.122;5.250;2023-05-01T00:44:09;6.6;;;3.8;;
62457;SDS011;48509;52.122;5.250;2023-05-01T00:45:45;6.2;;;3.8;;
62457;SDS011;48509;52.122;5.250;2023-05-01T00:47:21;6.1;;;3.4;;
62457;SDS011;48509;52.122;5.250;2023-05-01T00:50:35;6.2;;;4.1;;
62457;SDS011;48509;52.122;5.250;2023-05-01T00:52:12;6.8;;;3.7;;
62457;SDS011;48509;52.122;5.250;2023-05-01T00:53:49;8.2;;;4.0;;
62457;SDS011;48509;52.122;5.250;2023-05-01T00:57:03;6.6;;;3.7;;
62457;SDS011;48509;52.122;5.250;2023-05-01T00:58:40;6.4;;;3.5;;
62457;SDS011;48509;52.122;5.250;2023-05-01T01:00:17;6.5;;;3.5;;
62457;SDS011;48509;52.122;5.250;2023-05-01T01:01:56;4.1;;;3.1;;
62457;SDS011;48509;52.122;5.250;2023-05-01T01:05:10;7.9;;;3.4;;
62457;SDS011;48509;52.122;5.250;2023-05-01T01:06:48;6.4;;;3.5;;
62457;SDS011;48509;52.122;5.250;2023-05-01T01:08:32;4.2;;;3.2;;
62457;SDS011;48509;52.122;5.250;2023-05-01T01:10:15;5.7;;;3.6;;
62457;SDS011;48509;52.122;5.250;2023-05-01T01:13:55;4.8;;;3.5;;
62457;SDS011;48509;52.122;5.250;2023-05-01T01:15:36;5.2;;;3.6;;
62457;SDS011;48509;52.122;5.250;2023-05-01T01:17:20;7.2;;;3.6;;
62457;SDS011;48509;52.122;5.250;2023-05-01T01:19:05;5.6;;;3.7;;
62457;SDS011;48509;52.122;5.250;2023-05-01T01:21:06;6.8;;;3.9;;
62457;SDS011;48509;52.122;5.250;2023-05-01T01:22:50;6.2;;;3.7;;
62457;SDS011;48509;52.122;5.250;2023-05-01T01:26:38;8.81;;;4.3;;
62457;SDS011;48509;52.122;5.250;2023-05-01T01:28:50;8.0;;;4.5;;
62457;SDS011;48509;52.122;5.250;2023-05-01T01:31:31;7.5;;;4.5;;
62457;SDS011;48509;52.122;5.250;2023-05-01T01:33:20;7.4;;;4.41;;
62457;SDS011;48509;52.122;5.250;2023-05-01T01:35:24;6.0;;;4.1;;
62457;SDS011;48509;52.122;5.250;2023-05-01T01:38:50;6.6;;;4.3;;
62457;SDS011;48509;52.122;5.250;2023-05-01T01:40:42;7.0;;;4.3;;
62457;SDS011;48509;52.122;5.250;2023-05-01T01:44:14;7.7;;;4.2;;
62457;SDS011;48509;52.122;5.250;2023-05-01T01:46:04;7.0;;;3.9;;
62457;SDS011;48509;52.122;5.250;2023-05-01T01:49:20;7.4;;;3.8;;
62457;SDS011;48509;52.122;5.250;2023-05-01T01:51:00;6.7;;;4.2;;
62457;SDS011;48509;52.122;5.250;2023-05-01T01:52:44;6.1;;;4.0;;
62457;SDS011;48509;52.122;5.250;2023-05-01T01:54:25;5.9;;;3.7;;
62457;SDS011;48509;52.122;5.250;2023-05-01T01:57:44;6.0;;;3.5;;
62457;SDS011;48509;52.122;5.250;2023-05-01T01:59:22;9.4;;;4.1;;
62457;SDS011;48509;52.122;5.250;2023-05-01T02:01:00;6.1;;;3.9;;
62457;SDS011;48509;52.122;5.250;2023-05-01T02:02:38;6.5;;;4.1;;
62457;SDS011;48509;52.122;5.250;2023-05-01T02:05:53;6.0;;;3.7;;
62457;SDS011;48509;52.122;5.250;2023-05-01T02:07:33;8.81;;;3.9;;
62457;SDS011;48509;52.122;5.250;2023-05-01T02:09:12;8.4;;;4.3;;
62457;SDS011;48509;52.122;5.250;2023-05-01T02:10:54;17.41;;;4.3;;
62457;SDS011;48509;52.122;5.250;2023-05-01T02:14:08;7.5;;;4.1;;
62457;SDS011;48509;52.122;5.250;2023-05-01T02:15:46;7.8;;;3.9;;
62457;SDS011;48509;52.122;5.250;2023-05-01T02:17:23;5.11;;;3.5;;
62457;SDS011;48509;52.122;5.250;2023-05-01T02:20:39;5.8;;;3.6;;
62457;SDS011;48509;52.122;5.250;2023-05-01T02:22:18;8.9;;;4.1;;
62457;SDS011;48509;52.122;5.250;2023-05-01T02:23:57;8.9;;;4.1;;
62457;SDS011;48509;52.122;5.250;2023-05-01T02:25:36;7.4;;;3.9;;
62457;SDS011;48509;52.122;5.250;2023-05-01T02:28:55;5.7;;;3.5;;
62457;SDS011;48509;52.122;5.250;2023-05-01T02:30:31;6.0;;;4.0;;
62457;SDS011;48509;52.122;5.250;2023-05-01T02:32:07;7.4;;;4.2;;
62457;SDS011;48509;52.122;5.250;2023-05-01T02:35:20;8.5;;;4.1;;
62457;SDS011;48509;52.122;5.250;2023-05-01T02:36:56;8.4;;;4.3;;
62457;SDS011;48509;52.122;5.250;2023-05-01T02:38:32;6.6;;;3.8;;
62457;SDS011;48509;52.122;5.250;2023-05-01T02:40:08;6.7;;;3.8;;
62457;SDS011;48509;52.122;5.250;2023-05-01T02:43:25;5.3;;;3.7;;
62457;SDS011;48509;52.122;5.250;2023-05-01T02:45:05;9.9;;;4.2;;
62457;SDS011;48509;52.122;5.250;2023-05-01T02:46:43;6.3;;;4.0;;
62457;SDS011;48509;52.122;5.250;2023-05-01T02:50:03;6.5;;;3.7;;
62457;SDS011;48509;52.122;5.250;2023-05-01T02:51:42;5.7;;;3.8;;
62457;SDS011;48509;52.122;5.250;2023-05-01T02:53:20;8.71;;;4.41;;
62457;SDS011;48509;52.122;5.250;2023-05-01T02:54:57;7.2;;;4.3;;
62457;SDS011;48509;52.122;5.250;2023-05-01T02:58:13;7.6;;;4.2;;
62457;SDS011;48509;52.122;5.250;2023-05-01T02:59:50;8.2;;;4.0;;
62457;SDS011;48509;52.122;5.250;2023-05-01T03:01:27;7.3;;;4.3;;
62457;SDS011;48509;52.122;5.250;2023-05-01T03:04:40;8.1;;;4.5;;
62457;SDS011;48509;52.122;5.250;2023-05-01T03:06:16;7.8;;;4.1;;
62457;SDS011;48509;52.122;5.250;2023-05-01T03:07:52;7.9;;;4.2;;
62457;SDS011;48509;52.122;5.250;2023-05-01T03:09:28;6.7;;;4.1;;
62457;SDS011;48509;52.122;5.250;2023-05-01T03:12:41;8.4;;;4.3;;
62457;SDS011;48509;52.122;5.250;2023-05-01T03:14:18;6.8;;;4.0;;
62457;SDS011;48509;52.122;5.250;2023-05-01T03:15:55;7.7;;;4.3;;
62457;SDS011;48509;52.122;5.250;2023-05-01T03:19:07;7.3;;;4.7;;
62457;SDS011;48509;52.122;5.250;2023-05-01T03:20:49;8.1;;;4.3;;
62457;SDS011;48509;52.122;5.250;2023-05-01T03:22:27;8.6;;;4.61;;
62457;SDS011;48509;52.122;5.250;2023-05-01T03:24:05;7.1;;;4.41;;
62457;SDS011;48509;52.122;5.250;2023-05-01T03:27:18;9.9;;;4.7;;
62457;SDS011;48509;52.122;5.250;2023-05-01T03:28:54;8.9;;;4.8;;
62457;SDS011;48509;52.122;5.250;2023-05-01T03:30:32;9.1;;;4.7;;
62457;SDS011;48509;52.122;5.250;2023-05-01T03:33:44;7.2;;;4.5;;
62457;SDS011;48509;52.122;5.250;2023-05-01T03:35:20;6.0;;;4.3;;
62457;SDS011;48509;52.122;5.250;2023-05-01T03:36:56;6.7;;;4.2;;
62457;SDS011;48509;52.122;5.250;2023-05-01T03:40:09;7.1;;;4.1;;
62457;SDS011;48509;52.122;5.250;2023-05-01T03:41:46;10.0;;;4.91;;
62457;SDS011;48509;52.122;5.250;2023-05-01T03:43:22;6.9;;;4.1;;
62457;SDS011;48509;52.122;5.250;2023-05-01T03:44:59;8.9;;;4.61;;
62457;SDS011;48509;52.122;5.250;2023-05-01T03:48:11;8.71;;;4.8;;
62457;SDS011;48509;52.122;5.250;2023-05-01T03:49:47;8.1;;;4.8;;
62457;SDS011;48509;52.122;5.250;2023-05-01T03:51:23;6.6;;;4.41;;
62457;SDS011;48509;52.122;5.250;2023-05-01T03:54:36;7.7;;;4.3;;
62457;SDS011;48509;52.122;5.250;2023-05-01T03:56:12;9.9;;;4.61;;
62457;SDS011;48509;52.122;5.250;2023-05-01T03:57:48;7.4;;;4.1;;
62457;SDS011;48509;52.122;5.250;2023-05-01T04:01:00;6.5;;;4.2;;
62457;SDS011;48509;52.122;5.250;2023-05-01T04:02:36;8.1;;;4.91;;
62457;SDS011;48509;52.122;5.250;2023-05-01T04:09:13;7.4;;;4.2;;
62457;SDS011;48509;52.122;5.250;2023-05-01T04:10:49;7.7;;;4.2;;
62457;SDS011;48509;52.122;5.250;2023-05-01T04:12:24;8.71;;;4.3;;
62457;SDS011;48509;52.122;5.250;2023-05-01T04:15:36;8.5;;;4.3;;
62457;SDS011;48509;52.122;5.250;2023-05-01T04:17:12;7.3;;;4.2;;
62457;SDS011;48509;52.122;5.250;2023-05-01T04:18:49;7.5;;;4.2;;
62457;SDS011;48509;52.122;5.250;2023-05-01T04:22:01;6.0;;;4.1;;
62457;SDS011;48509;52.122;5.250;2023-05-01T04:23:37;9.4;;;4.61;;
62457;SDS011;48509;52.122;5.250;2023-05-01T04:25:13;6.9;;;4.2;;
62457;SDS011;48509;52.122;5.250;2023-05-01T04:26:49;10.3;;;4.41;;
62457;SDS011;48509;52.122;5.250;2023-05-01T04:30:02;10.5;;;4.8;;
62457;SDS011;48509;52.122;5.250;2023-05-01T04:31:38;7.8;;;4.1;;
62457;SDS011;48509;52.122;5.250;2023-05-01T04:33:14;10.21;;;4.2;;
62457;SDS011;48509;52.122;5.250;2023-05-01T04:36:26;7.6;;;4.2;;
62457;SDS011;48509;52.122;5.250;2023-05-01T04:38:02;8.2;;;4.5;;
62457;SDS011;48509;52.122;5.250;2023-05-01T04:39:38;5.9;;;4.1;;
62457;SDS011;48509;52.122;5.250;2023-05-01T04:42:50;8.9;;;4.41;;
62457;SDS011;48509;52.122;5.250;2023-05-01T04:44:27;6.6;;;4.1;;
62457;SDS011;48509;52.122;5.250;2023-05-01T04:46:03;8.31;;;4.0;;
62457;SDS011;48509;52.122;5.250;2023-05-01T04:49:15;10.8;;;5.0;;
62457;SDS011;48509;52.122;5.250;2023-05-01T04:50:51;8.0;;;4.61;;
62457;SDS011;48509;52.122;5.250;2023-05-01T04:52:27;6.8;;;4.3;;
62457;SDS011;48509;52.122;5.250;2023-05-01T04:54:03;9.81;;;4.91;;
62457;SDS011;48509;52.122;5.250;2023-05-01T04:57:16;9.81;;;4.41;;
62457;SDS011;48509;52.122;5.250;2023-05-01T04:58:52;9.31;;;5.11;;
62457;SDS011;48509;52.122;5.250;2023-05-01T05:00:28;8.9;;;4.8;;
62457;SDS011;48509;52.122;5.250;2023-05-01T05:03:41;9.1;;;4.61;;
62457;SDS011;48509;52.122;5.250;2023-05-01T05:05:18;9.81;;;4.61;;
62457;SDS011;48509;52.122;5.250;2023-05-01T05:06:54;8.81;;;4.61;;
62457;SDS011;48509;52.122;5.250;2023-05-01T05:10:07;9.6;;;4.41;;
62457;SDS011;48509;52.122;5.250;2023-05-01T05:11:43;11.0;;;4.8;;
62457;SDS011;48509;52.122;5.250;2023-05-01T05:13:19;9.71;;;4.8;;
62457;SDS011;48509;52.122;5.250;2023-05-01T05:14:55;8.0;;;4.7;;
62457;SDS011;48509;52.122;5.250;2023-05-01T05:18:07;8.0;;;4.91;;
62457;SDS011;48509;52.122;5.250;2023-05-01T05:19:43;8.9;;;4.1;;
62457;SDS011;48509;52.122;5.250;2023-05-01T05:21:19;8.2;;;4.5;;
62457;SDS011;48509;52.122;5.250;2023-05-01T05:24:32;9.0;;;5.0;;
62457;SDS011;48509;52.122;5.250;2023-05-01T05:26:08;8.31;;;4.61;;
62457;SDS011;48509;52.122;5.250;2023-05-01T05:27:44;11.5;;;5.9;;
62457;SDS011;48509;52.122;5.250;2023-05-01T05:30:56;9.9;;;5.2;;
62457;SDS011;48509;52.122;5.250;2023-05-01T05:32:32;9.5;;;4.91;;
62457;SDS011;48509;52.122;5.250;2023-05-01T05:34:08;7.9;;;4.91;;
62457;SDS011;48509;52.122;5.250;2023-05-01T05:37:21;8.81;;;4.61;;
62457;SDS011;48509;52.122;5.250;2023-05-01T05:38:57;9.0;;;4.7;;
62457;SDS011;48509;52.122;5.250;2023-05-01T05:40:34;6.6;;;4.5;;
62457;SDS011;48509;52.122;5.250;2023-05-01T05:42:10;6.9;;;4.7;;
62457;SDS011;48509;52.122;5.250;2023-05-01T05:45:22;9.4;;;4.91;;
62457;SDS011;48509;52.122;5.250;2023-05-01T05:46:58;10.0;;;4.61;;
62457;SDS011;48509;52.122;5.250;2023-05-01T05:48:34;9.71;;;5.0;;
62457;SDS011;48509;52.122;5.250;2023-05-01T05:53:23;9.81;;;4.8;;
62457;SDS011;48509;52.122;5.250;2023-05-01T05:55:00;11.4;;;5.2;;
62457;SDS011;48509;52.122;5.250;2023-05-01T05:58:12;9.4;;;4.8;;
62457;SDS011;48509;52.122;5.250;2023-05-01T05:59:49;7.2;;;4.3;;
62457;SDS011;48509;52.122;5.250;2023-05-01T06:01:25;8.6;;;4.61;;
62457;SDS011;48509;52.122;5.250;2023-05-01T06:03:02;10.9;;;5.0;;
62457;SDS011;48509;52.122;5.250;2023-05-01T06:06:14;10.1;;;5.11;;
62457;SDS011;48509;52.122;5.250;2023-05-01T06:07:51;8.0;;;5.11;;
62457;SDS011;48509;52.122;5.250;2023-05-01T06:09:27;7.8;;;4.61;;
62457;SDS011;48509;52.122;5.250;2023-05-01T06:12:39;7.4;;;4.8;;
62457;SDS011;48509;52.122;5.250;2023-05-01T06:14:15;9.0;;;4.7;;
62457;SDS011;48509;52.122;5.250;2023-05-01T06:15:50;7.9;;;4.8;;
62457;SDS011;48509;52.122;5.250;2023-05-01T06:19:03;10.7;;;5.5;;
62457;SDS011;48509;52.122;5.250;2023-05-01T06:20:39;6.6;;;4.3;;
62457;SDS011;48509;52.122;5.250;2023-05-01T06:22:15;9.81;;;5.11;;
62457;SDS011;48509;52.122;5.250;2023-05-01T06:25:27;7.8;;;4.8;;
62457;SDS011;48509;52.122;5.250;2023-05-01T06:27:03;9.1;;;4.7;;
62457;SDS011;48509;52.122;5.250;2023-05-01T06:28:39;10.8;;;5.11;;
62457;SDS011;48509;52.122;5.250;2023-05-01T06:30:16;9.4;;;5.2;;
62457;SDS011;48509;52.122;5.250;2023-05-01T06:33:28;11.4;;;5.0;;
62457;SDS011;48509;52.122;5.250;2023-05-01T06:35:04;8.2;;;5.0;;
62457;SDS011;48509;52.122;5.250;2023-05-01T06:36:41;13.5;;;5.4;;
62457;SDS011;48509;52.122;5.250;2023-05-01T06:39:53;8.6;;;5.4;;
62457;SDS011;48509;52.122;5.250;2023-05-01T06:41:29;11.4;;;5.4;;
62457;SDS011;48509;52.122;5.250;2023-05-01T06:43:06;11.3;;;5.4;;
62457;SDS011;48509;52.122;5.250;2023-05-01T06:46:18;12.2;;;6.0;;
62457;SDS011;48509;52.122;5.250;2023-05-01T06:47:54;12.6;;;5.5;;
62457;SDS011;48509;52.122;5.250;2023-05-01T06:49:30;11.1;;;5.5;;
62457;SDS011;48509;52.122;5.250;2023-05-01T06:52:42;10.4;;;5.9;;
62457;SDS011;48509;52.122;5.250;2023-05-01T06:54:19;11.4;;;5.9;;
62457;SDS011;48509;52.122;5.250;2023-05-01T06:55:55;13.8;;;6.5;;
62457;SDS011;48509;52.122;5.250;2023-05-01T07:00:44;9.81;;;6.1;;
62457;SDS011;48509;52.122;5.250;2023-05-01T07:02:20;12.1;;;6.2;;
62457;SDS011;48509;52.122;5.250;2023-05-01T07:03:56;12.1;;;6.5;;
62457;SDS011;48509;52.122;5.250;2023-05-01T07:07:08;12.5;;;6.7;;
62457;SDS011;48509;52.122;5.250;2023-05-01T07:08:45;12.9;;;6.0;;
62457;SDS011;48509;52.122;5.250;2023-05-01T07:10:21;10.8;;;5.5;;
62457;SDS011;48509;52.122;5.250;2023-05-01T07:13:33;14.4;;;6.5;;
62457;SDS011;48509;52.122;5.250;2023-05-01T07:15:09;13.6;;;5.6;;
62457;SDS011;48509;52.122;5.250;2023-05-01T07:16:45;14.2;;;6.5;;
62457;SDS011;48509;52.122;5.250;2023-05-01T07:18:21;12.7;;;6.4;;
62457;SDS011;48509;52.122;5.250;2023-05-01T07:21:34;11.4;;;6.2;;
62457;SDS011;48509;52.122;5.250;2023-05-01T07:23:10;12.5;;;6.6;;
62457;SDS011;48509;52.122;5.250;2023-05-01T07:24:46;12.6;;;6.2;;
62457;SDS011;48509;52.122;5.250;2023-05-01T07:28:01;13.9;;;6.3;;
62457;SDS011;48509;52.122;5.250;2023-05-01T07:29:37;11.5;;;6.1;;
62457;SDS011;48509;52.122;5.250;2023-05-01T07:31:13;16.61;;;6.6;;
62457;SDS011;48509;52.122;5.250;2023-05-01T07:34:26;15.5;;;6.7;;
62457;SDS011;48509;52.122;5.250;2023-05-01T07:36:02;11.6;;;6.3;;
62457;SDS011;48509;52.122;5.250;2023-05-01T07:37:39;16.5;;;6.5;;
62457;SDS011;48509;52.122;5.250;2023-05-01T07:39:15;18.3;;;6.6;;
62457;SDS011;48509;52.122;5.250;2023-05-01T07:42:27;14.0;;;6.6;;
62457;SDS011;48509;52.122;5.250;2023-05-01T07:44:03;12.8;;;6.2;;
62457;SDS011;48509;52.122;5.250;2023-05-01T07:45:40;14.3;;;7.0;;
62457;SDS011;48509;52.122;5.250;2023-05-01T07:48:52;11.9;;;6.4;;
62457;SDS011;48509;52.122;5.250;2023-05-01T07:50:28;11.4;;;6.6;;
62457;SDS011;48509;52.122;5.250;2023-05-01T07:52:05;12.0;;;6.5;;
62457;SDS011;48509;52.122;5.250;2023-05-01T07:55:20;10.5;;;6.3;;
62457;SDS011;48509;52.122;5.250;2023-05-01T07:56:56;12.9;;;6.6;;
62457;SDS011;48509;52.122;5.250;2023-05-01T07:58:34;13.4;;;6.5;;
62457;SDS011;48509;52.122;5.250;2023-05-01T08:00:10;14.0;;;6.5;;
62457;SDS011;48509;52.122;5.250;2023-05-01T08:03:23;9.5;;;6.1;;
62457;SDS011;48509;52.122;5.250;2023-05-01T08:04:59;15.2;;;6.6;;
62457;SDS011;48509;52.122;5.250;2023-05-01T08:06:35;13.0;;;7.1;;
62457;SDS011;48509;52.122;5.250;2023-05-01T08:09:47;15.0;;;7.1;;
62457;SDS011;48509;52.122;5.250;2023-05-01T08:11:24;10.9;;;6.3;;
62457;SDS011;48509;52.122;5.250;2023-05-01T08:13:01;10.6;;;6.8;;
62457;SDS011;48509;52.122;5.250;2023-05-01T08:16:13;14.2;;;6.9;;
62457;SDS011;48509;52.122;5.250;2023-05-01T08:17:49;14.2;;;6.1;;
62457;SDS011;48509;52.122;5.250;2023-05-01T08:19:25;10.4;;;6.5;;
62457;SDS011;48509;52.122;5.250;2023-05-01T08:22:37;10.21;;;6.0;;
62457;SDS011;48509;52.122;5.250;2023-05-01T08:24:14;16.7;;;6.8;;
62457;SDS011;48509;52.122;5.250;2023-05-01T08:25:50;14.7;;;6.6;;
62457;SDS011;48509;52.122;5.250;2023-05-01T08:27:27;11.9;;;6.8;;
62457;SDS011;48509;52.122;5.250;2023-05-01T08:30:39;12.4;;;6.6;;
62457;SDS011;48509;52.122;5.250;2023-05-01T08:32:15;11.7;;;6.4;;
62457;SDS011;48509;52.122;5.250;2023-05-01T08:33:53;12.7;;;6.4;;
62457;SDS011;48509;52.122;5.250;2023-05-01T08:37:05;12.1;;;6.8;;
62457;SDS011;48509;52.122;5.250;2023-05-01T08:38:42;11.2;;;6.6;;
62457;SDS011;48509;52.122;5.250;2023-05-01T08:40:18;10.7;;;6.4;;
62457;SDS011;48509;52.122;5.250;2023-05-01T08:43:30;16.8;;;6.7;;
62457;SDS011;48509;52.122;5.250;2023-05-01T08:45:08;12.6;;;6.0;;
62457;SDS011;48509;52.122;5.250;2023-05-01T08:46:45;12.6;;;6.5;;
62457;SDS011;48509;52.122;5.250;2023-05-01T08:48:23;14.0;;;6.6;;
62457;SDS011;48509;52.122;5.250;2023-05-01T08:51:39;12.9;;;6.4;;
62457;SDS011;48509;52.122;5.250;2023-05-01T08:53:17;11.1;;;6.1;;
62457;SDS011;48509;52.122;5.250;2023-05-01T08:54:57;10.21;;;5.5;;
62457;SDS011;48509;52.122;5.250;2023-05-01T08:58:13;13.3;;;6.5;;
62457;SDS011;48509;52.122;5.250;2023-05-01T08:59:52;12.9;;;6.3;;
62457;SDS011;48509;52.122;5.250;2023-05-01T09:01:31;12.9;;;6.3;;
62457;SDS011;48509;52.122;5.250;2023-05-01T09:03:10;12.1;;;6.7;;
62457;SDS011;48509;52.122;5.250;2023-05-01T09:06:27;13.0;;;6.2;;
62457;SDS011;48509;52.122;5.250;2023-05-01T09:09:40;13.2;;;6.4;;
62457;SDS011;48509;52.122;5.250;2023-05-01T09:11:18;10.8;;;6.0;;
62457;SDS011;48509;52.122;5.250;2023-05-01T09:14:36;10.7;;;6.0;;
62457;SDS011;48509;52.122;5.250;2023-05-01T09:16:13;11.1;;;6.3;;
62457;SDS011;48509;52.122;5.250;2023-05-01T09:17:50;9.31;;;5.8;;
62457;SDS011;48509;52.122;5.250;2023-05-01T09:21:02;12.5;;;5.7;;
62457;SDS011;48509;52.122;5.250;2023-05-01T09:22:38;13.2;;;5.5;;
62457;SDS011;48509;52.122;5.250;2023-05-01T09:24:16;10.4;;;4.91;;
62457;SDS011;48509;52.122;5.250;2023-05-01T09:27:31;9.1;;;5.0;;
62457;SDS011;48509;52.122;5.250;2023-05-01T09:29:09;10.5;;;5.11;;
62457;SDS011;48509;52.122;5.250;2023-05-01T09:30:45;12.4;;;5.5;;
62457;SDS011;48509;52.122;5.250;2023-05-01T09:35:53;9.0;;;5.11;;
62457;SDS011;48509;52.122;5.250;2023-05-01T09:37:32;11.3;;;4.7;;
62457;SDS011;48509;52.122;5.250;2023-05-01T09:39:09;11.9;;;4.61;;
62457;SDS011;48509;52.122;5.250;2023-05-01T09:41:02;9.31;;;4.5;;
62457;SDS011;48509;52.122;5.250;2023-05-01T09:42:41;11.7;;;5.0;;
62457;SDS011;48509;52.122;5.250;2023-05-01T09:46:01;11.6;;;4.61;;
62457;SDS011;48509;52.122;5.250;2023-05-01T09:47:39;12.9;;;4.61;;
62457;SDS011;48509;52.122;5.250;2023-05-01T09:49:15;12.9;;;4.61;;
62457;SDS011;48509;52.122;5.250;2023-05-01T09:52:28;8.1;;;4.0;;
62457;SDS011;48509;52.122;5.250;2023-05-01T09:54:05;9.71;;;4.2;;
62457;SDS011;48509;52.122;5.250;2023-05-01T09:55:59;6.7;;;4.0;;
62457;SDS011;48509;52.122;5.250;2023-05-01T09:57:35;7.7;;;3.8;;
62457;SDS011;48509;52.122;5.250;2023-05-01T10:02:28;9.6;;;4.1;;
62457;SDS011;48509;52.122;5.250;2023-05-01T10:04:05;8.71;;;3.9;;
62457;SDS011;48509;52.122;5.250;2023-05-01T10:05:42;9.1;;;3.7;;
62457;SDS011;48509;52.122;5.250;2023-05-01T10:08:55;8.2;;;3.7;;
62457;SDS011;48509;52.122;5.250;2023-05-01T10:10:31;8.4;;;3.8;;
62457;SDS011;48509;52.122;5.250;2023-05-01T10:12:07;9.21;;;4.0;;
62457;SDS011;48509;52.122;5.250;2023-05-01T10:15:20;7.7;;;3.6;;
62457;SDS011;48509;52.122;5.250;2023-05-01T10:16:56;7.1;;;3.2;;
62457;SDS011;48509;52.122;5.250;2023-05-01T10:18:32;7.8;;;3.4;;
62457;SDS011;48509;52.122;5.250;2023-05-01T10:21:47;9.21;;;3.4;;
62457;SDS011;48509;52.122;5.250;2023-05-01T10:23:24;8.5;;;3.6;;
62457;SDS011;48509;52.122;5.250;2023-05-01T10:25:00;8.1;;;3.5;;
62457;SDS011;48509;52.122;5.250;2023-05-01T10:26:41;9.0;;;3.5;;
62457;SDS011;48509;52.122;5.250;2023-05-01T10:29:55;5.8;;;3.1;;
62457;SDS011;48509;52.122;5.250;2023-05-01T10:31:32;7.8;;;3.5;;
62457;SDS011;48509;52.122;5.250;2023-05-01T10:33:11;7.5;;;3.6;;
62457;SDS011;48509;52.122;5.250;2023-05-01T10:36:33;24.4;;;3.9;;
62457;SDS011;48509;52.122;5.250;2023-05-01T10:38:18;8.31;;;3.7;;
62457;SDS011;48509;52.122;5.250;2023-05-01T10:39:57;8.81;;;4.0;;
62457;SDS011;48509;52.122;5.250;2023-05-01T10:42:06;8.31;;;3.8;;
62457;SDS011;48509;52.122;5.250;2023-05-01T10:43:44;8.5;;;3.5;;
62457;SDS011;48509;52.122;5.250;2023-05-01T10:48:09;6.6;;;3.5;;
62457;SDS011;48509;52.122;5.250;2023-05-01T10:50:01;10.6;;;3.8;;
62457;SDS011;48509;52.122;5.250;2023-05-01T10:53:33;8.0;;;3.4;;
62457;SDS011;48509;52.122;5.250;2023-05-01T10:55:30;6.9;;;3.3;;
62457;SDS011;48509;52.122;5.250;2023-05-01T10:57:40;13.5;;;5.11;;
62457;SDS011;48509;52.122;5.250;2023-05-01T10:59:17;9.31;;;4.2;;
62457;SDS011;48509;52.122;5.250;2023-05-01T11:01:15;12.5;;;5.6;;
62457;SDS011;48509;52.122;5.250;2023-05-01T11:03:35;13.0;;;5.9;;
62457;SDS011;48509;52.122;5.250;2023-05-01T11:05:12;14.4;;;6.1;;
62457;SDS011;48509;52.122;5.250;2023-05-01T11:07:12;19.3;;;6.2;;
62457;SDS011;48509;52.122;5.250;2023-05-01T11:08:49;12.3;;;6.1;;
62457;SDS011;48509;52.122;5.250;2023-05-01T11:12:02;11.4;;;6.1;;
62457;SDS011;48509;52.122;5.250;2023-05-01T11:13:54;14.6;;;5.5;;
62457;SDS011;48509;52.122;5.250;2023-05-01T11:15:32;9.31;;;5.2;;
62457;SDS011;48509;52.122;5.250;2023-05-01T11:17:09;10.4;;;5.0;;
62457;SDS011;48509;52.122;5.250;2023-05-01T11:20:53;16.2;;;6.0;;
62457;SDS011;48509;52.122;5.250;2023-05-01T11:22:29;9.71;;;5.3;;
62457;SDS011;48509;52.122;5.250;2023-05-01T11:24:07;11.9;;;6.0;;
62457;SDS011;48509;52.122;5.250;2023-05-01T11:25:45;11.6;;;6.0;;
62457;SDS011;48509;52.122;5.250;2023-05-01T11:27:22;8.81;;;5.3;;
62457;SDS011;48509;52.122;5.250;2023-05-01T11:30:36;8.1;;;5.3;;
62457;SDS011;48509;52.122;5.250;2023-05-01T11:32:15;8.9;;;5.3;;
62457;SDS011;48509;52.122;5.250;2023-05-01T11:33:54;12.6;;;5.8;;
62457;SDS011;48509;52.122;5.250;2023-05-01T11:37:07;9.21;;;5.8;;
62457;SDS011;48509;52.122;5.250;2023-05-01T11:38:51;9.71;;;6.0;;
62457;SDS011;48509;52.122;5.250;2023-05-01T11:40:29;8.9;;;5.5;;
62457;SDS011;48509;52.122;5.250;2023-05-01T11:45:24;9.71;;;5.3;;
62457;SDS011;48509;52.122;5.250;2023-05-01T11:47:00;9.4;;;4.91;;
62457;SDS011;48509;52.122;5.250;2023-05-01T11:48:36;13.6;;;5.7;;
62457;SDS011;48509;52.122;5.250;2023-05-01T11:51:54;13.6;;;6.9;;
62457;SDS011;48509;52.122;5.250;2023-05-01T11:53:31;14.8;;;8.0;;
62457;SDS011;48509;52.122;5.250;2023-05-01T11:55:07;14.7;;;7.4;;
62457;SDS011;48509;52.122;5.250;2023-05-01T11:56:44;23.5;;;8.1;;
62457;SDS011;48509;52.122;5.250;2023-05-01T12:00:12;15.0;;;8.0;;
62457;SDS011;48509;52.122;5.250;2023-05-01T12:01:51;15.8;;;8.81;;
62457;SDS011;48509;52.122;5.250;2023-05-01T12:03:27;17.61;;;9.0;;
62457;SDS011;48509;52.122;5.250;2023-05-01T12:05:13;12.8;;;8.81;;
62457;SDS011;48509;52.122;5.250;2023-05-01T12:08:31;14.7;;;8.2;;
62457;SDS011;48509;52.122;5.250;2023-05-01T12:10:07;11.1;;;8.0;;
62457;SDS011;48509;52.122;5.250;2023-05-01T12:11:45;14.9;;;7.3;;
62457;SDS011;48509;52.122;5.250;2023-05-01T12:13:23;14.8;;;7.8;;
62457;SDS011;48509;52.122;5.250;2023-05-01T12:16:37;15.2;;;7.9;;
62457;SDS011;48509;52.122;5.250;2023-05-01T12:18:14;11.1;;;7.4;;
62457;SDS011;48509;52.122;5.250;2023-05-01T12:19:51;13.4;;;6.8;;
62457;SDS011;48509;52.122;5.250;2023-05-01T12:23:03;13.3;;;7.0;;
62457;SDS011;48509;52.122;5.250;2023-05-01T12:24:49;15.9;;;6.9;;
62457;SDS011;48509;52.122;5.250;2023-05-01T12:26:26;12.7;;;7.0;;
62457;SDS011;48509;52.122;5.250;2023-05-01T12:28:02;14.1;;;7.1;;
62457;SDS011;48509;52.122;5.250;2023-05-01T12:31:20;14.1;;;6.8;;
62457;SDS011;48509;52.122;5.250;2023-05-01T12:32:57;14.1;;;7.2;;
62457;SDS011;48509;52.122;5.250;2023-05-01T12:34:34;17.0;;;7.5;;
62457;SDS011;48509;52.122;5.250;2023-05-01T12:37:46;14.9;;;7.0;;
62457;SDS011;48509;52.122;5.250;2023-05-01T12:39:23;13.0;;;7.2;;
62457;SDS011;48509;52.122;5.250;2023-05-01T12:41:00;13.7;;;7.6;;
62457;SDS011;48509;52.122;5.250;2023-05-01T12:42:36;16.7;;;7.4;;
62457;SDS011;48509;52.122;5.250;2023-05-01T12:45:57;14.5;;;6.8;;
62457;SDS011;48509;52.122;5.250;2023-05-01T12:47:35;13.8;;;7.4;;
62457;SDS011;48509;52.122;5.250;2023-05-01T12:49:15;12.3;;;7.8;;
62457;SDS011;48509;52.122;5.250;2023-05-01T12:52:28;14.7;;;7.5;;
62457;SDS011;48509;52.122;5.250;2023-05-01T12:54:07;13.3;;;7.8;;
62457;SDS011;48509;52.122;5.250;2023-05-01T12:55:44;16.11;;;7.8;;
62457;SDS011;48509;52.122;5.250;2023-05-01T12:57:22;15.4;;;8.31;;
62457;SDS011;48509;52.122;5.250;2023-05-01T13:00:40;16.2;;;8.2;;
62457;SDS011;48509;52.122;5.250;2023-05-01T13:02:18;13.9;;;7.3;;
62457;SDS011;48509;52.122;5.250;2023-05-01T13:03:54;16.8;;;7.8;;
62457;SDS011;48509;52.122;5.250;2023-05-01T13:07:10;14.5;;;8.0;;
62457;SDS011;48509;52.122;5.250;2023-05-01T13:08:47;17.5;;;8.1;;
62457;SDS011;48509;52.122;5.250;2023-05-01T13:10:27;14.9;;;8.31;;
62457;SDS011;48509;52.122;5.250;2023-05-01T13:12:05;12.9;;;8.0;;